sensor_id;sensor_type;location;lat;lon;timestamp;P1;durP1;ratioP1;P2;durP2;ratioP2
9924;SDS011;5001;51.674;7.868;2023-02-02T00:01:18;6.90;;;1.83;;
9924;SDS011;5001;51.674;7.868;2023-02-02T00:03:46;11.67;;;2.07;;
9924;SDS011;5001;51.674;7.868;2023-02-02T00:06:19;12.13;;;2.33;;
9924;SDS011;5001;51.674;7.868;2023-02-02T00:08:48;10.77;;;1.90;;
9924;SDS011;5001;51.674;7.868;2023-02-02T00:11:15;10.03;;;1.73;;
9924;SDS011;5001;51.674;7.868;2023-02-02T00:13:43;6.60;;;1.93;;
9924;SDS011;5001;51.674;7.868;2023-02-02T00:16:25;10.63;;;2.07;;
9924;SDS011;5001;51.674;7.868;2023-02-02T00:19:05;8.00;;;2.10;;
9924;SDS011;5001;51.674;7.868;2023-02-02T00:21:40;7.33;;;1.90;;
9924;SDS011;5001;51.674;7.868;2023-02-02T00:24:08;10.20;;;2.37;;
9924;SDS011;5001;51.674;7.868;2023-02-02T00:26:37;10.37;;;1.87;;
9924;SDS011;5001;51.674;7.868;2023-02-02T00:29:05;7.47;;;2.00;;
9924;SDS011;5001;51.674;7.868;2023-02-02T00:31:36;6.97;;;1.60;;
9924;SDS011;5001;51.674;7.868;2023-02-02T00:34:03;6.13;;;2.07;;
9924;SDS011;5001;51.674;7.868;2023-02-02T00:36:30;9.00;;;1.90;;
9924;SDS011;5001;51.674;7.868;2023-02-02T00:38:57;7.27;;;2.00;;
9924;SDS011;5001;51.674;7.868;2023-02-02T00:41:24;9.70;;;1.87;;
9924;SDS011;5001;51.674;7.868;2023-02-02T00:43:51;12.93;;;2.10;;
9924;SDS011;5001;51.674;7.868;2023-02-02T00:46:39;7.70;;;1.73;;
9924;SDS011;5001;51.674;7.868;2023-02-02T00:49:07;9.03;;;1.73;;
9924;SDS011;5001;51.674;7.868;2023-02-02T00:51:35;12.63;;;2.20;;
9924;SDS011;5001;51.674;7.868;2023-02-02T00:54:03;10.77;;;2.07;;
9924;SDS011;5001;51.674;7.868;2023-02-02T00:56:30;8.13;;;1.90;;
9924;SDS011;5001;51.674;7.868;2023-02-02T00:58:57;5.97;;;2.27;;
9924;SDS011;5001;51.674;7.868;2023-02-02T01:01:24;9.57;;;1.77;;
9924;SDS011;5001;51.674;7.868;2023-02-02T01:03:51;6.40;;;1.90;;
9924;SDS011;5001;51.674;7.868;2023-02-02T01:06:18;9.83;;;1.80;;
9924;SDS011;5001;51.674;7.868;2023-02-02T01:08:46;8.47;;;2.07;;
9924;SDS011;5001;51.674;7.868;2023-02-02T01:11:13;8.60;;;2.20;;
9924;SDS011;5001;51.674;7.868;2023-02-02T01:13:40;9.53;;;2.37;;
9924;SDS011;5001;51.674;7.868;2023-02-02T01:16:07;8.77;;;1.90;;
9924;SDS011;5001;51.674;7.868;2023-02-02T01:18:34;5.63;;;1.80;;
9924;SDS011;5001;51.674;7.868;2023-02-02T01:21:03;8.90;;;1.83;;
9924;SDS011;5001;51.674;7.868;2023-02-02T01:23:34;6.90;;;1.70;;
9924;SDS011;5001;51.674;7.868;2023-02-02T01:26:02;9.77;;;2.30;;
9924;SDS011;5001;51.674;7.868;2023-02-02T01:28:31;9.27;;;2.07;;
9924;SDS011;5001;51.674;7.868;2023-02-02T01:30:58;8.73;;;1.87;;
9924;SDS011;5001;51.674;7.868;2023-02-02T01:33:30;11.00;;;3.00;;
9924;SDS011;5001;51.674;7.868;2023-02-02T01:35:57;9.53;;;2.67;;
9924;SDS011;5001;51.674;7.868;2023-02-02T01:38:24;9.00;;;2.40;;
9924;SDS011;5001;51.674;7.868;2023-02-02T01:40:52;14.37;;;2.43;;
9924;SDS011;5001;51.674;7.868;2023-02-02T01:46:11;9.80;;;2.53;;
9924;SDS011;5001;51.674;7.868;2023-02-02T01:48:40;11.10;;;2.93;;
9924;SDS011;5001;51.674;7.868;2023-02-02T01:51:13;11.90;;;3.10;;
9924;SDS011;5001;51.674;7.868;2023-02-02T01:53:43;11.33;;;3.20;;
9924;SDS011;5001;51.674;7.868;2023-02-02T01:56:12;13.13;;;3.63;;
9924;SDS011;5001;51.674;7.868;2023-02-02T01:58:42;13.87;;;2.80;;
9924;SDS011;5001;51.674;7.868;2023-02-02T02:01:11;11.10;;;2.50;;
9924;SDS011;5001;51.674;7.868;2023-02-02T02:03:39;12.43;;;3.43;;
9924;SDS011;5001;51.674;7.868;2023-02-02T02:06:08;15.70;;;2.67;;
9924;SDS011;5001;51.674;7.868;2023-02-02T02:08:41;6.93;;;3.13;;
9924;SDS011;5001;51.674;7.868;2023-02-02T02:11:18;9.93;;;2.70;;
9924;SDS011;5001;51.674;7.868;2023-02-02T02:13:46;16.43;;;2.67;;
9924;SDS011;5001;51.674;7.868;2023-02-02T02:31:59;14.17;;;5.00;;
9924;SDS011;5001;51.674;7.868;2023-02-02T02:40:14;16.50;;;5.77;;
9924;SDS011;5001;51.674;7.868;2023-02-02T02:43:05;17.03;;;5.40;;
9924;SDS011;5001;51.674;7.868;2023-02-02T02:45:41;18.70;;;6.67;;
9924;SDS011;5001;51.674;7.868;2023-02-02T02:48:11;17.97;;;6.10;;
9924;SDS011;5001;51.674;7.868;2023-02-02T02:50:38;20.20;;;5.90;;
9924;SDS011;5001;51.674;7.868;2023-02-02T02:53:28;19.90;;;7.00;;
9924;SDS011;5001;51.674;7.868;2023-02-02T02:55:57;14.60;;;6.37;;
9924;SDS011;5001;51.674;7.868;2023-02-02T02:59:04;14.80;;;6.40;;
9924;SDS011;5001;51.674;7.868;2023-02-02T03:01:50;18.03;;;6.63;;
9924;SDS011;5001;51.674;7.868;2023-02-02T03:07:17;18.87;;;6.73;;
9924;SDS011;5001;51.674;7.868;2023-02-02T03:09:49;16.60;;;6.43;;
9924;SDS011;5001;51.674;7.868;2023-02-02T03:12:18;19.83;;;6.20;;
9924;SDS011;5001;51.674;7.868;2023-02-02T03:14:45;20.50;;;6.77;;
9924;SDS011;5001;51.674;7.868;2023-02-02T03:17:12;21.87;;;7.23;;
9924;SDS011;5001;51.674;7.868;2023-02-02T03:19:38;13.30;;;6.63;;
9924;SDS011;5001;51.674;7.868;2023-02-02T03:22:05;18.23;;;7.40;;
9924;SDS011;5001;51.674;7.868;2023-02-02T03:24:32;18.43;;;8.00;;
9924;SDS011;5001;51.674;7.868;2023-02-02T03:26:59;23.17;;;8.20;;
9924;SDS011;5001;51.674;7.868;2023-02-02T03:29:26;16.73;;;7.00;;
9924;SDS011;5001;51.674;7.868;2023-02-02T03:31:54;21.37;;;7.97;;
9924;SDS011;5001;51.674;7.868;2023-02-02T03:34:21;19.00;;;7.73;;
9924;SDS011;5001;51.674;7.868;2023-02-02T03:36:48;16.97;;;6.87;;
9924;SDS011;5001;51.674;7.868;2023-02-02T03:39:15;24.33;;;8.07;;
9924;SDS011;5001;51.674;7.868;2023-02-02T03:41:42;24.30;;;8.03;;
9924;SDS011;5001;51.674;7.868;2023-02-02T03:44:09;21.03;;;8.63;;
9924;SDS011;5001;51.674;7.868;2023-02-02T03:46:36;19.00;;;8.50;;
9924;SDS011;5001;51.674;7.868;2023-02-02T03:49:02;20.60;;;7.93;;
9924;SDS011;5001;51.674;7.868;2023-02-02T03:51:29;21.57;;;9.23;;
9924;SDS011;5001;51.674;7.868;2023-02-02T03:53:56;20.80;;;8.67;;
9924;SDS011;5001;51.674;7.868;2023-02-02T03:56:23;26.00;;;8.63;;
9924;SDS011;5001;51.674;7.868;2023-02-02T03:58:50;21.50;;;8.33;;
9924;SDS011;5001;51.674;7.868;2023-02-02T04:01:24;28.63;;;7.87;;
9924;SDS011;5001;51.674;7.868;2023-02-02T04:03:55;20.53;;;8.50;;
9924;SDS011;5001;51.674;7.868;2023-02-02T04:06:23;23.83;;;8.37;;
9924;SDS011;5001;51.674;7.868;2023-02-02T04:08:51;21.20;;;8.63;;
9924;SDS011;5001;51.674;7.868;2023-02-02T04:11:18;22.43;;;8.40;;
9924;SDS011;5001;51.674;7.868;2023-02-02T04:13:45;18.70;;;8.27;;
9924;SDS011;5001;51.674;7.868;2023-02-02T04:16:12;25.17;;;8.30;;
9924;SDS011;5001;51.674;7.868;2023-02-02T04:18:39;20.03;;;8.17;;
9924;SDS011;5001;51.674;7.868;2023-02-02T04:21:06;24.60;;;8.53;;
9924;SDS011;5001;51.674;7.868;2023-02-02T04:23:34;25.30;;;8.03;;
9924;SDS011;5001;51.674;7.868;2023-02-02T04:26:01;25.37;;;8.57;;
9924;SDS011;5001;51.674;7.868;2023-02-02T04:28:29;20.00;;;7.57;;
9924;SDS011;5001;51.674;7.868;2023-02-02T04:30:56;19.40;;;7.37;;
9924;SDS011;5001;51.674;7.868;2023-02-02T04:33:24;21.33;;;8.87;;
9924;SDS011;5001;51.674;7.868;2023-02-02T04:35:52;18.20;;;7.80;;
9924;SDS011;5001;51.674;7.868;2023-02-02T04:38:20;21.97;;;8.57;;
9924;SDS011;5001;51.674;7.868;2023-02-02T04:40:47;25.97;;;8.83;;
9924;SDS011;5001;51.674;7.868;2023-02-02T04:43:14;24.50;;;9.47;;
9924;SDS011;5001;51.674;7.868;2023-02-02T04:45:41;23.23;;;9.53;;
9924;SDS011;5001;51.674;7.868;2023-02-02T04:48:08;23.37;;;8.87;;
9924;SDS011;5001;51.674;7.868;2023-02-02T04:50:36;19.33;;;8.53;;
9924;SDS011;5001;51.674;7.868;2023-02-02T04:53:03;21.40;;;8.77;;
9924;SDS011;5001;51.674;7.868;2023-02-02T04:55:34;20.30;;;8.63;;
9924;SDS011;5001;51.674;7.868;2023-02-02T04:58:03;19.47;;;8.33;;
9924;SDS011;5001;51.674;7.868;2023-02-02T05:00:31;18.00;;;8.63;;
9924;SDS011;5001;51.674;7.868;2023-02-02T05:02:58;20.50;;;7.47;;
9924;SDS011;5001;51.674;7.868;2023-02-02T05:05:25;17.70;;;7.53;;
9924;SDS011;5001;51.674;7.868;2023-02-02T05:07:53;25.30;;;9.40;;
9924;SDS011;5001;51.674;7.868;2023-02-02T05:10:20;16.47;;;6.70;;
9924;SDS011;5001;51.674;7.868;2023-02-02T05:12:47;18.43;;;6.87;;
9924;SDS011;5001;51.674;7.868;2023-02-02T05:15:17;17.07;;;7.07;;
9924;SDS011;5001;51.674;7.868;2023-02-02T05:17:44;21.30;;;7.67;;
9924;SDS011;5001;51.674;7.868;2023-02-02T05:20:11;15.87;;;6.97;;
9924;SDS011;5001;51.674;7.868;2023-02-02T05:22:38;17.80;;;6.30;;
9924;SDS011;5001;51.674;7.868;2023-02-02T05:25:05;16.60;;;6.13;;
9924;SDS011;5001;51.674;7.868;2023-02-02T05:27:32;15.63;;;6.53;;
9924;SDS011;5001;51.674;7.868;2023-02-02T05:30:00;26.27;;;7.13;;
9924;SDS011;5001;51.674;7.868;2023-02-02T05:32:27;17.77;;;7.00;;
9924;SDS011;5001;51.674;7.868;2023-02-02T05:34:55;13.17;;;6.47;;
9924;SDS011;5001;51.674;7.868;2023-02-02T05:37:22;17.67;;;7.03;;
9924;SDS011;5001;51.674;7.868;2023-02-02T05:39:48;20.10;;;9.50;;
9924;SDS011;5001;51.674;7.868;2023-02-02T05:42:17;13.37;;;6.23;;
9924;SDS011;5001;51.674;7.868;2023-02-02T05:44:44;18.83;;;7.37;;
9924;SDS011;5001;51.674;7.868;2023-02-02T05:47:11;16.50;;;7.30;;
9924;SDS011;5001;51.674;7.868;2023-02-02T05:49:38;14.43;;;7.67;;
9924;SDS011;5001;51.674;7.868;2023-02-02T05:52:05;15.23;;;7.53;;
9924;SDS011;5001;51.674;7.868;2023-02-02T05:54:32;15.07;;;7.30;;
9924;SDS011;5001;51.674;7.868;2023-02-02T05:56:59;13.23;;;8.30;;
9924;SDS011;5001;51.674;7.868;2023-02-02T05:59:28;19.00;;;7.77;;
9924;SDS011;5001;51.674;7.868;2023-02-02T06:01:55;15.90;;;7.57;;
9924;SDS011;5001;51.674;7.868;2023-02-02T06:04:22;13.47;;;7.57;;
9924;SDS011;5001;51.674;7.868;2023-02-02T06:06:49;18.00;;;8.07;;
9924;SDS011;5001;51.674;7.868;2023-02-02T06:09:16;21.90;;;9.77;;
9924;SDS011;5001;51.674;7.868;2023-02-02T06:11:43;15.73;;;8.53;;
9924;SDS011;5001;51.674;7.868;2023-02-02T06:14:10;16.40;;;8.80;;
9924;SDS011;5001;51.674;7.868;2023-02-02T06:16:37;19.13;;;9.27;;
9924;SDS011;5001;51.674;7.868;2023-02-02T06:19:04;24.77;;;9.87;;
9924;SDS011;5001;51.674;7.868;2023-02-02T06:21:31;22.07;;;9.67;;
9924;SDS011;5001;51.674;7.868;2023-02-02T06:23:58;24.37;;;10.80;;
9924;SDS011;5001;51.674;7.868;2023-02-02T06:26:25;19.93;;;10.27;;
9924;SDS011;5001;51.674;7.868;2023-02-02T06:28:53;23.03;;;13.07;;
9924;SDS011;5001;51.674;7.868;2023-02-02T06:31:20;24.03;;;12.40;;
9924;SDS011;5001;51.674;7.868;2023-02-02T06:33:51;29.13;;;13.40;;
9924;SDS011;5001;51.674;7.868;2023-02-02T06:36:19;26.57;;;13.67;;
9924;SDS011;5001;51.674;7.868;2023-02-02T06:38:47;29.80;;;14.03;;
9924;SDS011;5001;51.674;7.868;2023-02-02T06:41:16;28.77;;;14.47;;
9924;SDS011;5001;51.674;7.868;2023-02-02T06:43:43;28.03;;;13.23;;
9924;SDS011;5001;51.674;7.868;2023-02-02T06:46:10;28.50;;;14.47;;
9924;SDS011;5001;51.674;7.868;2023-02-02T06:48:37;27.07;;;13.53;;
9924;SDS011;5001;51.674;7.868;2023-02-02T06:51:04;27.90;;;13.77;;
9924;SDS011;5001;51.674;7.868;2023-02-02T06:53:32;29.33;;;14.57;;
9924;SDS011;5001;51.674;7.868;2023-02-02T06:56:01;36.13;;;15.40;;
9924;SDS011;5001;51.674;7.868;2023-02-02T06:58:31;28.07;;;14.40;;
9924;SDS011;5001;51.674;7.868;2023-02-02T07:01:05;24.20;;;13.63;;
9924;SDS011;5001;51.674;7.868;2023-02-02T07:03:34;24.03;;;14.13;;
9924;SDS011;5001;51.674;7.868;2023-02-02T07:06:20;32.87;;;14.53;;
9924;SDS011;5001;51.674;7.868;2023-02-02T07:08:52;35.27;;;16.30;;
9924;SDS011;5001;51.674;7.868;2023-02-02T07:11:31;28.87;;;16.03;;
9924;SDS011;5001;51.674;7.868;2023-02-02T07:14:06;33.03;;;15.53;;
9924;SDS011;5001;51.674;7.868;2023-02-02T07:16:33;29.50;;;15.80;;
9924;SDS011;5001;51.674;7.868;2023-02-02T07:19:01;40.50;;;16.10;;
9924;SDS011;5001;51.674;7.868;2023-02-02T07:21:28;30.37;;;15.20;;
9924;SDS011;5001;51.674;7.868;2023-02-02T07:24:01;25.23;;;13.97;;
9924;SDS011;5001;51.674;7.868;2023-02-02T07:26:28;38.10;;;13.63;;
9924;SDS011;5001;51.674;7.868;2023-02-02T07:28:56;24.43;;;13.50;;
9924;SDS011;5001;51.674;7.868;2023-02-02T07:31:24;31.57;;;15.67;;
9924;SDS011;5001;51.674;7.868;2023-02-02T07:33:52;29.20;;;14.53;;
9924;SDS011;5001;51.674;7.868;2023-02-02T07:36:20;32.13;;;13.83;;
9924;SDS011;5001;51.674;7.868;2023-02-02T07:38:50;28.40;;;14.27;;
9924;SDS011;5001;51.674;7.868;2023-02-02T07:41:23;29.80;;;13.27;;
9924;SDS011;5001;51.674;7.868;2023-02-02T07:43:50;31.40;;;13.57;;
9924;SDS011;5001;51.674;7.868;2023-02-02T07:46:17;27.23;;;12.70;;
9924;SDS011;5001;51.674;7.868;2023-02-02T07:48:45;31.13;;;14.23;;
9924;SDS011;5001;51.674;7.868;2023-02-02T07:51:13;35.73;;;13.97;;
9924;SDS011;5001;51.674;7.868;2023-02-02T07:53:43;30.57;;;14.63;;
9924;SDS011;5001;51.674;7.868;2023-02-02T07:56:15;31.83;;;15.47;;
9924;SDS011;5001;51.674;7.868;2023-02-02T07:58:43;22.33;;;13.97;;
9924;SDS011;5001;51.674;7.868;2023-02-02T08:01:12;32.83;;;14.43;;
9924;SDS011;5001;51.674;7.868;2023-02-02T08:03:40;23.33;;;12.07;;
9924;SDS011;5001;51.674;7.868;2023-02-02T08:06:09;28.63;;;13.50;;
9924;SDS011;5001;51.674;7.868;2023-02-02T08:08:46;22.50;;;11.93;;
9924;SDS011;5001;51.674;7.868;2023-02-02T08:11:14;27.67;;;12.87;;
9924;SDS011;5001;51.674;7.868;2023-02-02T08:13:43;22.67;;;12.47;;
9924;SDS011;5001;51.674;7.868;2023-02-02T08:16:13;26.20;;;12.90;;
9924;SDS011;5001;51.674;7.868;2023-02-02T08:18:40;25.67;;;12.33;;
9924;SDS011;5001;51.674;7.868;2023-02-02T08:21:08;26.50;;;13.17;;
9924;SDS011;5001;51.674;7.868;2023-02-02T08:23:37;26.37;;;13.53;;
9924;SDS011;5001;51.674;7.868;2023-02-02T08:26:10;23.17;;;14.23;;
9924;SDS011;5001;51.674;7.868;2023-02-02T08:28:41;34.10;;;17.87;;
9924;SDS011;5001;51.674;7.868;2023-02-02T08:31:19;24.77;;;13.73;;
9924;SDS011;5001;51.674;7.868;2023-02-02T08:33:52;29.60;;;15.53;;
9924;SDS011;5001;51.674;7.868;2023-02-02T08:36:21;24.50;;;13.63;;
9924;SDS011;5001;51.674;7.868;2023-02-02T08:38:49;24.37;;;12.83;;
9924;SDS011;5001;51.674;7.868;2023-02-02T08:41:17;28.50;;;13.10;;
9924;SDS011;5001;51.674;7.868;2023-02-02T08:43:46;23.60;;;12.67;;
9924;SDS011;5001;51.674;7.868;2023-02-02T08:46:14;23.53;;;12.97;;
9924;SDS011;5001;51.674;7.868;2023-02-02T08:48:43;27.97;;;14.43;;
9924;SDS011;5001;51.674;7.868;2023-02-02T08:51:11;26.53;;;13.13;;
9924;SDS011;5001;51.674;7.868;2023-02-02T08:53:40;12.10;;;7.33;;
9924;SDS011;5001;51.674;7.868;2023-02-02T08:56:18;15.50;;;8.53;;
9924;SDS011;5001;51.674;7.868;2023-02-02T08:58:50;11.20;;;5.27;;
9924;SDS011;5001;51.674;7.868;2023-02-02T09:01:20;11.53;;;7.07;;
9924;SDS011;5001;51.674;7.868;2023-02-02T09:03:52;11.30;;;5.60;;
9924;SDS011;5001;51.674;7.868;2023-02-02T09:06:20;10.23;;;3.80;;
9924;SDS011;5001;51.674;7.868;2023-02-02T09:08:58;5.37;;;3.13;;
9924;SDS011;5001;51.674;7.868;2023-02-02T09:11:25;8.13;;;3.37;;
9924;SDS011;5001;51.674;7.868;2023-02-02T09:13:53;12.93;;;3.13;;
9924;SDS011;5001;51.674;7.868;2023-02-02T09:16:22;8.97;;;3.37;;
9924;SDS011;5001;51.674;7.868;2023-02-02T09:18:50;10.40;;;3.70;;
9924;SDS011;5001;51.674;7.868;2023-02-02T09:21:18;7.40;;;4.03;;
9924;SDS011;5001;51.674;7.868;2023-02-02T09:23:46;10.07;;;4.20;;
9924;SDS011;5001;51.674;7.868;2023-02-02T09:26:15;7.10;;;3.53;;
9924;SDS011;5001;51.674;7.868;2023-02-02T09:29:02;7.57;;;3.10;;
9924;SDS011;5001;51.674;7.868;2023-02-02T09:31:34;9.27;;;3.70;;
9924;SDS011;5001;51.674;7.868;2023-02-02T09:34:03;9.10;;;3.63;;
9924;SDS011;5001;51.674;7.868;2023-02-02T09:36:32;10.57;;;4.43;;
9924;SDS011;5001;51.674;7.868;2023-02-02T09:39:00;12.20;;;4.13;;
9924;SDS011;5001;51.674;7.868;2023-02-02T09:47:41;11.10;;;5.87;;
9924;SDS011;5001;51.674;7.868;2023-02-02T09:50:16;7.27;;;4.23;;
9924;SDS011;5001;51.674;7.868;2023-02-02T09:52:57;6.00;;;3.90;;
9924;SDS011;5001;51.674;7.868;2023-02-02T09:55:39;8.73;;;4.60;;
9924;SDS011;5001;51.674;7.868;2023-02-02T10:00:47;8.03;;;3.53;;
9924;SDS011;5001;51.674;7.868;2023-02-02T10:08:56;14.03;;;6.90;;
9924;SDS011;5001;51.674;7.868;2023-02-02T10:11:33;9.83;;;5.13;;
9924;SDS011;5001;51.674;7.868;2023-02-02T10:19:51;9.50;;;5.60;;
9924;SDS011;5001;51.674;7.868;2023-02-02T10:22:23;12.77;;;6.30;;
9924;SDS011;5001;51.674;7.868;2023-02-02T10:24:55;12.03;;;4.83;;
9924;SDS011;5001;51.674;7.868;2023-02-02T10:27:36;9.67;;;5.67;;
9924;SDS011;5001;51.674;7.868;2023-02-02T10:30:28;10.07;;;5.73;;
9924;SDS011;5001;51.674;7.868;2023-02-02T10:36:24;63.30;;;49.10;;
9924;SDS011;5001;51.674;7.868;2023-02-02T10:39:17;9.40;;;4.57;;
9924;SDS011;5001;51.674;7.868;2023-02-02T10:44:52;8.33;;;3.50;;
9924;SDS011;5001;51.674;7.868;2023-02-02T10:47:24;10.10;;;3.63;;
9924;SDS011;5001;51.674;7.868;2023-02-02T10:52:48;11.93;;;6.57;;
9924;SDS011;5001;51.674;7.868;2023-02-02T10:55:20;6.50;;;4.60;;
9924;SDS011;5001;51.674;7.868;2023-02-02T10:58:13;15.90;;;4.43;;
9924;SDS011;5001;51.674;7.868;2023-02-02T11:01:01;7.53;;;4.00;;
9924;SDS011;5001;51.674;7.868;2023-02-02T11:03:30;8.70;;;4.00;;
9924;SDS011;5001;51.674;7.868;2023-02-02T11:05:58;34.77;;;22.83;;
9924;SDS011;5001;51.674;7.868;2023-02-02T11:08:50;18.63;;;11.63;;
9924;SDS011;5001;51.674;7.868;2023-02-02T11:16:31;13.20;;;7.33;;
9924;SDS011;5001;51.674;7.868;2023-02-02T11:19:20;16.23;;;10.43;;
9924;SDS011;5001;51.674;7.868;2023-02-02T11:21:50;10.90;;;6.73;;
9924;SDS011;5001;51.674;7.868;2023-02-02T11:27:00;25.50;;;17.27;;
9924;SDS011;5001;51.674;7.868;2023-02-02T11:31:56;14.13;;;7.27;;
9924;SDS011;5001;51.674;7.868;2023-02-02T11:34:25;12.57;;;8.97;;
9924;SDS011;5001;51.674;7.868;2023-02-02T11:36:56;13.33;;;9.33;;
9924;SDS011;5001;51.674;7.868;2023-02-02T11:39:27;12.13;;;6.97;;
9924;SDS011;5001;51.674;7.868;2023-02-02T11:41:58;10.63;;;6.47;;
9924;SDS011;5001;51.674;7.868;2023-02-02T11:44:27;21.73;;;13.97;;
9924;SDS011;5001;51.674;7.868;2023-02-02T11:46:55;15.10;;;7.73;;
9924;SDS011;5001;51.674;7.868;2023-02-02T11:49:22;20.77;;;10.47;;
9924;SDS011;5001;51.674;7.868;2023-02-02T11:52:00;12.23;;;7.97;;
9924;SDS011;5001;51.674;7.868;2023-02-02T11:54:33;13.47;;;6.23;;
9924;SDS011;5001;51.674;7.868;2023-02-02T11:57:08;11.43;;;6.43;;
9924;SDS011;5001;51.674;7.868;2023-02-02T12:04:45;15.60;;;9.97;;
9924;SDS011;5001;51.674;7.868;2023-02-02T12:07:17;26.27;;;16.20;;
9924;SDS011;5001;51.674;7.868;2023-02-02T12:09:47;13.37;;;7.67;;
9924;SDS011;5001;51.674;7.868;2023-02-02T12:17:49;14.33;;;7.90;;
9924;SDS011;5001;51.674;7.868;2023-02-02T12:39:33;13.70;;;9.17;;
9924;SDS011;5001;51.674;7.868;2023-02-02T12:55:33;11.00;;;6.37;;
9924;SDS011;5001;51.674;7.868;2023-02-02T13:01:01;20.27;;;15.27;;
9924;SDS011;5001;51.674;7.868;2023-02-02T13:09:20;12.30;;;7.67;;
9924;SDS011;5001;51.674;7.868;2023-02-02T13:12:06;10.47;;;7.50;;
9924;SDS011;5001;51.674;7.868;2023-02-02T13:14:46;10.03;;;6.17;;
9924;SDS011;5001;51.674;7.868;2023-02-02T13:17:59;10.30;;;6.47;;
9924;SDS011;5001;51.674;7.868;2023-02-02T13:22:55;10.67;;;5.70;;
9924;SDS011;5001;51.674;7.868;2023-02-02T13:25:28;9.00;;;5.23;;
9924;SDS011;5001;51.674;7.868;2023-02-02T13:28:00;15.77;;;6.80;;
9924;SDS011;5001;51.674;7.868;2023-02-02T13:30:31;0.30;;;0.30;;
9924;SDS011;5001;51.674;7.868;2023-02-02T13:33:14;0.37;;;0.37;;
9924;SDS011;5001;51.674;7.868;2023-02-02T13:35:55;0.30;;;0.30;;
9924;SDS011;5001;51.674;7.868;2023-02-02T13:38:26;0.40;;;0.40;;
9924;SDS011;5001;51.674;7.868;2023-02-02T13:41:01;0.30;;;0.30;;
9924;SDS011;5001;51.674;7.868;2023-02-02T13:43:36;0.40;;;0.40;;
9924;SDS011;5001;51.674;7.868;2023-02-02T13:54:48;0.40;;;0.40;;
9924;SDS011;5001;51.674;7.868;2023-02-02T14:03:22;3.10;;;2.97;;
9924;SDS011;5001;51.674;7.868;2023-02-02T14:08:49;0.30;;;0.30;;
9924;SDS011;5001;51.674;7.868;2023-02-02T14:11:36;0.40;;;0.40;;
9924;SDS011;5001;51.674;7.868;2023-02-02T14:16:58;0.40;;;0.40;;
9924;SDS011;5001;51.674;7.868;2023-02-02T14:27:02;0.50;;;0.50;;
9924;SDS011;5001;51.674;7.868;2023-02-02T14:40:47;0.30;;;0.30;;
9924;SDS011;5001;51.674;7.868;2023-02-02T14:43:39;0.40;;;0.40;;
9924;SDS011;5001;51.674;7.868;2023-02-02T14:48:39;0.40;;;0.40;;
9924;SDS011;5001;51.674;7.868;2023-02-02T14:51:27;3.77;;;3.60;;
9924;SDS011;5001;51.674;7.868;2023-02-02T14:53:59;0.30;;;0.30;;
9924;SDS011;5001;51.674;7.868;2023-02-02T14:56:41;0.30;;;0.30;;
9924;SDS011;5001;51.674;7.868;2023-02-02T14:59:18;0.30;;;0.30;;
9924;SDS011;5001;51.674;7.868;2023-02-02T15:01:55;0.37;;;0.37;;
9924;SDS011;5001;51.674;7.868;2023-02-02T15:04:28;0.40;;;0.40;;
9924;SDS011;5001;51.674;7.868;2023-02-02T15:06:55;0.40;;;0.40;;
9924;SDS011;5001;51.674;7.868;2023-02-02T15:09:49;0.30;;;0.30;;
9924;SDS011;5001;51.674;7.868;2023-02-02T15:12:36;0.40;;;0.40;;
9924;SDS011;5001;51.674;7.868;2023-02-02T15:15:20;0.30;;;0.30;;
9924;SDS011;5001;51.674;7.868;2023-02-02T15:18:10;0.40;;;0.40;;
9924;SDS011;5001;51.674;7.868;2023-02-02T15:20:43;0.30;;;0.30;;
9924;SDS011;5001;51.674;7.868;2023-02-02T15:28:42;0.33;;;0.33;;
9924;SDS011;5001;51.674;7.868;2023-02-02T15:33:58;0.40;;;0.40;;
9924;SDS011;5001;51.674;7.868;2023-02-02T15:36:31;0.33;;;0.33;;
9924;SDS011;5001;51.674;7.868;2023-02-02T15:42:15;0.30;;;0.30;;
9924;SDS011;5001;51.674;7.868;2023-02-02T15:47:54;0.40;;;0.40;;
9924;SDS011;5001;51.674;7.868;2023-02-02T15:50:22;0.33;;;0.33;;
9924;SDS011;5001;51.674;7.868;2023-02-02T15:52:50;1.03;;;1.03;;
9924;SDS011;5001;51.674;7.868;2023-02-02T15:57:54;0.40;;;0.40;;
9924;SDS011;5001;51.674;7.868;2023-02-02T16:00:32;0.40;;;0.40;;
9924;SDS011;5001;51.674;7.868;2023-02-02T16:03:05;0.40;;;0.40;;
9924;SDS011;5001;51.674;7.868;2023-02-02T16:08:01;0.30;;;0.30;;
9924;SDS011;5001;51.674;7.868;2023-02-02T16:10:32;0.30;;;0.30;;
9924;SDS011;5001;51.674;7.868;2023-02-02T16:13:00;0.40;;;0.40;;
9924;SDS011;5001;51.674;7.868;2023-02-02T16:15:28;0.40;;;0.40;;
9924;SDS011;5001;51.674;7.868;2023-02-02T16:17:58;0.40;;;0.40;;
9924;SDS011;5001;51.674;7.868;2023-02-02T16:20:33;0.40;;;0.40;;
9924;SDS011;5001;51.674;7.868;2023-02-02T16:23:03;0.33;;;0.33;;
9924;SDS011;5001;51.674;7.868;2023-02-02T16:25:38;0.30;;;0.30;;
9924;SDS011;5001;51.674;7.868;2023-02-02T16:28:13;0.40;;;0.40;;
9924;SDS011;5001;51.674;7.868;2023-02-02T16:30:43;0.37;;;0.37;;
9924;SDS011;5001;51.674;7.868;2023-02-02T16:33:32;0.30;;;0.30;;
9924;SDS011;5001;51.674;7.868;2023-02-02T16:36:16;0.30;;;0.30;;
9924;SDS011;5001;51.674;7.868;2023-02-02T16:38:50;0.30;;;0.30;;
9924;SDS011;5001;51.674;7.868;2023-02-02T16:41:29;0.40;;;0.40;;
9924;SDS011;5001;51.674;7.868;2023-02-02T16:46:57;0.40;;;0.40;;
9924;SDS011;5001;51.674;7.868;2023-02-02T16:49:25;0.30;;;0.30;;
9924;SDS011;5001;51.674;7.868;2023-02-02T16:54:39;0.40;;;0.40;;
9924;SDS011;5001;51.674;7.868;2023-02-02T16:57:13;0.30;;;0.30;;
9924;SDS011;5001;51.674;7.868;2023-02-02T16:59:46;0.40;;;0.40;;
9924;SDS011;5001;51.674;7.868;2023-02-02T17:05:03;0.30;;;0.30;;
9924;SDS011;5001;51.674;7.868;2023-02-02T17:07:45;0.40;;;0.40;;
9924;SDS011;5001;51.674;7.868;2023-02-02T17:12:43;0.30;;;0.30;;
9924;SDS011;5001;51.674;7.868;2023-02-02T17:17:46;0.40;;;0.40;;
9924;SDS011;5001;51.674;7.868;2023-02-02T17:20:17;0.30;;;0.30;;
9924;SDS011;5001;51.674;7.868;2023-02-02T17:22:46;0.40;;;0.40;;
9924;SDS011;5001;51.674;7.868;2023-02-02T17:25:32;0.40;;;0.40;;
9924;SDS011;5001;51.674;7.868;2023-02-02T17:28:04;0.40;;;0.40;;
9924;SDS011;5001;51.674;7.868;2023-02-02T17:30:35;0.33;;;0.33;;
9924;SDS011;5001;51.674;7.868;2023-02-02T17:33:07;0.30;;;0.30;;
9924;SDS011;5001;51.674;7.868;2023-02-02T17:35:36;0.40;;;0.40;;
9924;SDS011;5001;51.674;7.868;2023-02-02T17:38:20;0.40;;;0.40;;
9924;SDS011;5001;51.674;7.868;2023-02-02T17:40:47;0.40;;;0.40;;
9924;SDS011;5001;51.674;7.868;2023-02-02T17:43:15;0.40;;;0.40;;
9924;SDS011;5001;51.674;7.868;2023-02-02T17:45:42;0.40;;;0.40;;
9924;SDS011;5001;51.674;7.868;2023-02-02T17:48:09;0.40;;;0.40;;
9924;SDS011;5001;51.674;7.868;2023-02-02T17:50:38;0.40;;;0.40;;
9924;SDS011;5001;51.674;7.868;2023-02-02T17:53:09;0.40;;;0.40;;
9924;SDS011;5001;51.674;7.868;2023-02-02T17:55:38;0.40;;;0.40;;
9924;SDS011;5001;51.674;7.868;2023-02-02T17:58:07;0.40;;;0.40;;
9924;SDS011;5001;51.674;7.868;2023-02-02T18:00:36;0.40;;;0.40;;
9924;SDS011;5001;51.674;7.868;2023-02-02T18:03:16;0.40;;;0.40;;
9924;SDS011;5001;51.674;7.868;2023-02-02T18:05:47;0.40;;;0.40;;
9924;SDS011;5001;51.674;7.868;2023-02-02T18:08:15;0.40;;;0.40;;
9924;SDS011;5001;51.674;7.868;2023-02-02T18:10:42;0.40;;;0.40;;
9924;SDS011;5001;51.674;7.868;2023-02-02T18:13:11;0.40;;;0.40;;
9924;SDS011;5001;51.674;7.868;2023-02-02T18:15:41;0.30;;;0.30;;
9924;SDS011;5001;51.674;7.868;2023-02-02T18:18:09;0.40;;;0.40;;
9924;SDS011;5001;51.674;7.868;2023-02-02T18:20:41;1.03;;;1.03;;
9924;SDS011;5001;51.674;7.868;2023-02-02T18:23:09;0.40;;;0.40;;
9924;SDS011;5001;51.674;7.868;2023-02-02T18:25:37;0.50;;;0.50;;
9924;SDS011;5001;51.674;7.868;2023-02-02T18:28:07;0.40;;;0.40;;
9924;SDS011;5001;51.674;7.868;2023-02-02T18:30:39;0.40;;;0.40;;
9924;SDS011;5001;51.674;7.868;2023-02-02T18:33:07;0.40;;;0.40;;
9924;SDS011;5001;51.674;7.868;2023-02-02T18:35:35;0.30;;;0.30;;
9924;SDS011;5001;51.674;7.868;2023-02-02T18:38:10;0.40;;;0.40;;
9924;SDS011;5001;51.674;7.868;2023-02-02T18:40:38;0.40;;;0.40;;
9924;SDS011;5001;51.674;7.868;2023-02-02T18:43:05;0.30;;;0.30;;
9924;SDS011;5001;51.674;7.868;2023-02-02T18:45:32;0.40;;;0.40;;